sensor_id;sensor_type;location;lat;lon;timestamp;P1;durP1;ratioP1;P2;durP2;ratioP2
21334;SDS011;69435;52.670;13.544;2023-07-13T00:00:37;4.47;;;4.03;;
21334;SDS011;69435;52.670;13.544;2023-07-13T00:03:23;4.13;;;3.83;;
21334;SDS011;69435;52.670;13.544;2023-07-13T00:06:09;4.20;;;3.43;;
21334;SDS011;69435;52.670;13.544;2023-07-13T00:08:55;4.13;;;3.83;;
21334;SDS011;69435;52.670;13.544;2023-07-13T00:11:42;4.67;;;4.33;;
21334;SDS011;69435;52.670;13.544;2023-07-13T00:14:29;6.10;;;4.20;;
21334;SDS011;69435;52.670;13.544;2023-07-13T00:17:15;4.73;;;3.87;;
21334;SDS011;69435;52.670;13.544;2023-07-13T00:20:02;8.03;;;3.90;;
21334;SDS011;69435;52.670;13.544;2023-07-13T00:22:49;4.17;;;3.73;;
21334;SDS011;69435;52.670;13.544;2023-07-13T00:25:35;6.70;;;3.87;;
21334;SDS011;69435;52.670;13.544;2023-07-13T00:28:21;5.33;;;3.50;;
21334;SDS011;69435;52.670;13.544;2023-07-13T00:31:08;3.90;;;3.47;;
21334;SDS011;69435;52.670;13.544;2023-07-13T00:33:56;4.67;;;3.73;;
21334;SDS011;69435;52.670;13.544;2023-07-13T00:36:42;4.83;;;3.80;;
21334;SDS011;69435;52.670;13.544;2023-07-13T00:39:28;3.77;;;3.33;;
21334;SDS011;69435;52.670;13.544;2023-07-13T00:42:14;6.00;;;3.10;;
21334;SDS011;69435;52.670;13.544;2023-07-13T00:48:06;4.27;;;3.87;;
21334;SDS011;69435;52.670;13.544;2023-07-13T00:50:53;5.03;;;3.23;;
21334;SDS011;69435;52.670;13.544;2023-07-13T00:53:43;4.07;;;3.70;;
21334;SDS011;69435;52.670;13.544;2023-07-13T00:56:30;3.77;;;3.47;;
21334;SDS011;69435;52.670;13.544;2023-07-13T00:59:19;3.60;;;3.30;;
21334;SDS011;69435;52.670;13.544;2023-07-13T01:02:07;3.90;;;3.60;;
21334;SDS011;69435;52.670;13.544;2023-07-13T01:04:53;4.50;;;4.10;;
21334;SDS011;69435;52.670;13.544;2023-07-13T01:07:41;4.43;;;3.80;;
21334;SDS011;69435;52.670;13.544;2023-07-13T01:10:30;4.57;;;3.80;;
21334;SDS011;69435;52.670;13.544;2023-07-13T01:13:22;5.30;;;4.00;;
21334;SDS011;69435;52.670;13.544;2023-07-13T01:16:12;4.63;;;3.50;;
21334;SDS011;69435;52.670;13.544;2023-07-13T01:19:15;4.80;;;3.97;;
21334;SDS011;69435;52.670;13.544;2023-07-13T01:22:16;3.93;;;3.63;;
21334;SDS011;69435;52.670;13.544;2023-07-13T01:25:04;4.27;;;3.90;;
21334;SDS011;69435;52.670;13.544;2023-07-13T01:27:50;4.60;;;3.83;;
21334;SDS011;69435;52.670;13.544;2023-07-13T01:30:37;4.20;;;3.83;;
21334;SDS011;69435;52.670;13.544;2023-07-13T01:33:25;4.07;;;3.67;;
21334;SDS011;69435;52.670;13.544;2023-07-13T01:36:11;4.67;;;3.63;;
21334;SDS011;69435;52.670;13.544;2023-07-13T01:38:57;3.93;;;3.63;;
21334;SDS011;69435;52.670;13.544;2023-07-13T01:41:43;4.53;;;3.80;;
21334;SDS011;69435;52.670;13.544;2023-07-13T01:44:29;7.53;;;3.67;;
21334;SDS011;69435;52.670;13.544;2023-07-13T01:47:15;4.20;;;3.90;;
21334;SDS011;69435;52.670;13.544;2023-07-13T01:50:01;4.27;;;3.90;;
21334;SDS011;69435;52.670;13.544;2023-07-13T01:52:48;4.53;;;3.60;;
21334;SDS011;69435;52.670;13.544;2023-07-13T01:55:34;5.33;;;4.10;;
21334;SDS011;69435;52.670;13.544;2023-07-13T01:58:20;4.07;;;3.60;;
21334;SDS011;69435;52.670;13.544;2023-07-13T02:01:07;3.77;;;3.37;;
21334;SDS011;69435;52.670;13.544;2023-07-13T02:03:52;4.87;;;4.10;;
21334;SDS011;69435;52.670;13.544;2023-07-13T02:06:38;4.90;;;4.43;;
21334;SDS011;69435;52.670;13.544;2023-07-13T02:09:24;5.37;;;4.17;;
21334;SDS011;69435;52.670;13.544;2023-07-13T02:12:10;6.40;;;4.53;;
21334;SDS011;69435;52.670;13.544;2023-07-13T02:14:56;4.77;;;4.37;;
21334;SDS011;69435;52.670;13.544;2023-07-13T02:17:42;6.57;;;3.87;;
21334;SDS011;69435;52.670;13.544;2023-07-13T02:20:28;4.17;;;3.87;;
21334;SDS011;69435;52.670;13.544;2023-07-13T02:23:14;4.27;;;3.97;;
21334;SDS011;69435;52.670;13.544;2023-07-13T02:26:01;4.03;;;3.47;;
21334;SDS011;69435;52.670;13.544;2023-07-13T02:28:49;4.73;;;4.43;;
21334;SDS011;69435;52.670;13.544;2023-07-13T02:31:35;5.00;;;4.07;;
21334;SDS011;69435;52.670;13.544;2023-07-13T02:34:21;6.37;;;3.77;;
21334;SDS011;69435;52.670;13.544;2023-07-13T02:37:07;4.40;;;4.10;;
21334;SDS011;69435;52.670;13.544;2023-07-13T02:39:53;4.40;;;3.90;;
21334;SDS011;69435;52.670;13.544;2023-07-13T02:42:39;4.97;;;4.57;;
21334;SDS011;69435;52.670;13.544;2023-07-13T02:45:26;5.20;;;4.13;;
21334;SDS011;69435;52.670;13.544;2023-07-13T02:48:13;4.30;;;4.00;;
21334;SDS011;69435;52.670;13.544;2023-07-13T02:50:59;5.47;;;4.53;;
21334;SDS011;69435;52.670;13.544;2023-07-13T02:53:45;7.83;;;4.63;;
21334;SDS011;69435;52.670;13.544;2023-07-13T02:56:32;4.70;;;4.03;;
21334;SDS011;69435;52.670;13.544;2023-07-13T02:59:18;6.53;;;4.60;;
21334;SDS011;69435;52.670;13.544;2023-07-13T03:02:04;9.27;;;4.53;;
21334;SDS011;69435;52.670;13.544;2023-07-13T03:04:50;7.47;;;4.73;;
21334;SDS011;69435;52.670;13.544;2023-07-13T03:07:36;6.43;;;5.00;;
21334;SDS011;69435;52.670;13.544;2023-07-13T03:10:22;6.53;;;4.40;;
21334;SDS011;69435;52.670;13.544;2023-07-13T03:13:07;6.83;;;4.73;;
21334;SDS011;69435;52.670;13.544;2023-07-13T03:15:53;5.10;;;4.70;;
21334;SDS011;69435;52.670;13.544;2023-07-13T03:18:40;4.80;;;4.40;;
21334;SDS011;69435;52.670;13.544;2023-07-13T03:21:26;5.87;;;5.20;;
21334;SDS011;69435;52.670;13.544;2023-07-13T03:24:12;10.87;;;5.40;;
21334;SDS011;69435;52.670;13.544;2023-07-13T03:26:58;5.57;;;4.93;;
21334;SDS011;69435;52.670;13.544;2023-07-13T03:29:45;4.90;;;4.60;;
21334;SDS011;69435;52.670;13.544;2023-07-13T03:32:31;6.30;;;5.17;;
21334;SDS011;69435;52.670;13.544;2023-07-13T03:35:18;5.50;;;5.10;;
21334;SDS011;69435;52.670;13.544;2023-07-13T03:38:04;6.33;;;5.00;;
21334;SDS011;69435;52.670;13.544;2023-07-13T03:40:50;7.27;;;5.13;;
21334;SDS011;69435;52.670;13.544;2023-07-13T03:43:36;6.20;;;5.00;;
21334;SDS011;69435;52.670;13.544;2023-07-13T03:46:22;7.93;;;5.77;;
21334;SDS011;69435;52.670;13.544;2023-07-13T03:49:09;6.47;;;5.27;;
21334;SDS011;69435;52.670;13.544;2023-07-13T03:51:56;7.53;;;5.17;;
21334;SDS011;69435;52.670;13.544;2023-07-13T03:54:42;6.47;;;5.10;;
21334;SDS011;69435;52.670;13.544;2023-07-13T03:57:28;5.43;;;4.93;;
21334;SDS011;69435;52.670;13.544;2023-07-13T04:00:14;5.23;;;4.70;;
21334;SDS011;69435;52.670;13.544;2023-07-13T04:03:01;5.57;;;5.00;;
21334;SDS011;69435;52.670;13.544;2023-07-13T04:05:47;6.03;;;5.43;;
21334;SDS011;69435;52.670;13.544;2023-07-13T04:08:34;5.60;;;5.10;;
21334;SDS011;69435;52.670;13.544;2023-07-13T04:11:22;6.47;;;5.07;;
21334;SDS011;69435;52.670;13.544;2023-07-13T04:14:11;6.93;;;5.30;;
21334;SDS011;69435;52.670;13.544;2023-07-13T04:16:57;5.63;;;5.13;;
21334;SDS011;69435;52.670;13.544;2023-07-13T04:19:43;5.23;;;4.77;;
21334;SDS011;69435;52.670;13.544;2023-07-13T04:22:30;7.43;;;5.33;;
21334;SDS011;69435;52.670;13.544;2023-07-13T04:25:16;6.33;;;5.20;;
21334;SDS011;69435;52.670;13.544;2023-07-13T04:28:03;5.47;;;4.97;;
21334;SDS011;69435;52.670;13.544;2023-07-13T04:30:50;6.60;;;5.50;;
21334;SDS011;69435;52.670;13.544;2023-07-13T04:33:36;6.43;;;5.47;;
21334;SDS011;69435;52.670;13.544;2023-07-13T04:36:23;5.63;;;5.13;;
21334;SDS011;69435;52.670;13.544;2023-07-13T04:39:14;7.77;;;5.10;;
21334;SDS011;69435;52.670;13.544;2023-07-13T04:41:59;6.13;;;4.90;;
21334;SDS011;69435;52.670;13.544;2023-07-13T04:44:49;4.73;;;4.33;;
21334;SDS011;69435;52.670;13.544;2023-07-13T04:47:36;5.37;;;4.87;;
21334;SDS011;69435;52.670;13.544;2023-07-13T04:50:22;4.80;;;4.40;;
21334;SDS011;69435;52.670;13.544;2023-07-13T04:53:09;4.80;;;3.77;;
21334;SDS011;69435;52.670;13.544;2023-07-13T04:55:56;6.53;;;4.63;;
21334;SDS011;69435;52.670;13.544;2023-07-13T04:58:42;4.43;;;3.77;;
21334;SDS011;69435;52.670;13.544;2023-07-13T05:01:28;5.00;;;3.80;;
21334;SDS011;69435;52.670;13.544;2023-07-13T05:04:14;3.93;;;3.60;;
21334;SDS011;69435;52.670;13.544;2023-07-13T05:07:00;3.93;;;3.63;;
21334;SDS011;69435;52.670;13.544;2023-07-13T05:09:46;3.83;;;3.53;;
21334;SDS011;69435;52.670;13.544;2023-07-13T05:12:32;5.37;;;3.60;;
21334;SDS011;69435;52.670;13.544;2023-07-13T05:15:22;5.67;;;3.23;;
21334;SDS011;69435;52.670;13.544;2023-07-13T05:18:09;4.37;;;3.50;;
21334;SDS011;69435;52.670;13.544;2023-07-13T05:21:02;4.43;;;3.57;;
21334;SDS011;69435;52.670;13.544;2023-07-13T05:23:51;4.87;;;3.30;;
21334;SDS011;69435;52.670;13.544;2023-07-13T05:26:37;4.97;;;3.70;;
21334;SDS011;69435;52.670;13.544;2023-07-13T05:29:23;3.30;;;2.90;;
21334;SDS011;69435;52.670;13.544;2023-07-13T05:32:10;3.80;;;3.30;;
21334;SDS011;69435;52.670;13.544;2023-07-13T05:34:56;3.07;;;2.83;;
21334;SDS011;69435;52.670;13.544;2023-07-13T05:37:42;4.27;;;3.10;;
21334;SDS011;69435;52.670;13.544;2023-07-13T05:40:27;3.10;;;2.90;;
21334;SDS011;69435;52.670;13.544;2023-07-13T05:43:13;3.40;;;2.97;;
21334;SDS011;69435;52.670;13.544;2023-07-13T05:46:00;3.63;;;2.70;;
21334;SDS011;69435;52.670;13.544;2023-07-13T05:48:46;7.60;;;3.00;;
21334;SDS011;69435;52.670;13.544;2023-07-13T05:51:33;2.93;;;2.63;;
21334;SDS011;69435;52.670;13.544;2023-07-13T05:54:18;4.10;;;2.90;;
21334;SDS011;69435;52.670;13.544;2023-07-13T05:57:05;3.30;;;2.80;;
21334;SDS011;69435;52.670;13.544;2023-07-13T05:59:51;3.23;;;2.90;;
21334;SDS011;69435;52.670;13.544;2023-07-13T06:02:37;5.33;;;3.27;;
21334;SDS011;69435;52.670;13.544;2023-07-13T06:05:23;3.53;;;2.80;;
21334;SDS011;69435;52.670;13.544;2023-07-13T06:08:09;3.43;;;2.80;;
21334;SDS011;69435;52.670;13.544;2023-07-13T06:10:58;3.47;;;2.53;;
21334;SDS011;69435;52.670;13.544;2023-07-13T06:13:55;3.43;;;3.00;;
21334;SDS011;69435;52.670;13.544;2023-07-13T06:16:41;2.90;;;2.70;;
21334;SDS011;69435;52.670;13.544;2023-07-13T06:19:28;4.33;;;2.80;;
21334;SDS011;69435;52.670;13.544;2023-07-13T06:22:14;5.77;;;2.33;;
21334;SDS011;69435;52.670;13.544;2023-07-13T06:25:00;5.93;;;2.43;;
21334;SDS011;69435;52.670;13.544;2023-07-13T06:27:46;7.10;;;2.63;;
21334;SDS011;69435;52.670;13.544;2023-07-13T06:30:32;3.80;;;2.63;;
21334;SDS011;69435;52.670;13.544;2023-07-13T06:33:18;7.80;;;2.53;;
21334;SDS011;69435;52.670;13.544;2023-07-13T06:36:04;3.07;;;2.30;;
21334;SDS011;69435;52.670;13.544;2023-07-13T06:38:53;2.60;;;2.10;;
21334;SDS011;69435;52.670;13.544;2023-07-13T06:41:39;4.70;;;2.30;;
21334;SDS011;69435;52.670;13.544;2023-07-13T06:44:25;3.50;;;1.87;;
21334;SDS011;69435;52.670;13.544;2023-07-13T06:47:11;3.13;;;2.33;;
21334;SDS011;69435;52.670;13.544;2023-07-13T06:49:57;2.20;;;2.00;;
21334;SDS011;69435;52.670;13.544;2023-07-13T06:52:43;2.30;;;2.10;;
21334;SDS011;69435;52.670;13.544;2023-07-13T06:55:29;3.50;;;2.03;;
21334;SDS011;69435;52.670;13.544;2023-07-13T06:58:15;4.40;;;2.93;;
21334;SDS011;69435;52.670;13.544;2023-07-13T07:01:03;5.47;;;2.40;;
21334;SDS011;69435;52.670;13.544;2023-07-13T07:03:50;8.43;;;2.50;;
21334;SDS011;69435;52.670;13.544;2023-07-13T07:06:36;3.00;;;2.10;;
21334;SDS011;69435;52.670;13.544;2023-07-13T07:09:22;2.70;;;2.00;;
21334;SDS011;69435;52.670;13.544;2023-07-13T07:12:08;3.07;;;2.10;;
21334;SDS011;69435;52.670;13.544;2023-07-13T07:14:54;2.97;;;1.90;;
21334;SDS011;69435;52.670;13.544;2023-07-13T07:17:40;1.70;;;1.60;;
21334;SDS011;69435;52.670;13.544;2023-07-13T07:20:26;1.70;;;1.60;;
21334;SDS011;69435;52.670;13.544;2023-07-13T07:23:12;1.80;;;1.67;;
21334;SDS011;69435;52.670;13.544;2023-07-13T07:25:59;2.05;;;1.50;;
21334;SDS011;69435;52.670;13.544;2023-07-13T07:28:46;2.70;;;1.40;;
21334;SDS011;69435;52.670;13.544;2023-07-13T07:31:32;3.65;;;1.95;;
21334;SDS011;69435;52.670;13.544;2023-07-13T07:34:18;3.25;;;1.58;;
21334;SDS011;69435;52.670;13.544;2023-07-13T07:37:04;3.30;;;1.55;;
21334;SDS011;69435;52.670;13.544;2023-07-13T07:39:50;2.72;;;1.60;;
21334;SDS011;69435;52.670;13.544;2023-07-13T07:42:37;2.72;;;1.40;;
21334;SDS011;69435;52.670;13.544;2023-07-13T07:45:23;4.00;;;1.70;;
21334;SDS011;69435;52.670;13.544;2023-07-13T07:48:09;1.42;;;1.33;;
21334;SDS011;69435;52.670;13.544;2023-07-13T07:50:55;1.48;;;1.38;;
21334;SDS011;69435;52.670;13.544;2023-07-13T07:53:41;1.63;;;1.45;;
21334;SDS011;69435;52.670;13.544;2023-07-13T07:56:27;2.08;;;1.40;;
21334;SDS011;69435;52.670;13.544;2023-07-13T07:59:13;1.15;;;1.05;;
21334;SDS011;69435;52.670;13.544;2023-07-13T08:01:59;2.42;;;1.58;;
21334;SDS011;69435;52.670;13.544;2023-07-13T08:04:45;2.67;;;1.30;;
21334;SDS011;69435;52.670;13.544;2023-07-13T08:07:31;1.40;;;1.27;;
21334;SDS011;69435;52.670;13.544;2023-07-13T08:10:17;2.35;;;1.30;;
21334;SDS011;69435;52.670;13.544;2023-07-13T08:13:03;1.25;;;1.10;;
21334;SDS011;69435;52.670;13.544;2023-07-13T08:15:49;1.25;;;1.10;;
21334;SDS011;69435;52.670;13.544;2023-07-13T08:18:36;1.20;;;1.10;;
21334;SDS011;69435;52.670;13.544;2023-07-13T08:21:22;1.27;;;1.17;;
21334;SDS011;69435;52.670;13.544;2023-07-13T08:24:08;1.48;;;1.10;;
21334;SDS011;69435;52.670;13.544;2023-07-13T08:26:55;3.25;;;1.00;;
21334;SDS011;69435;52.670;13.544;2023-07-13T08:29:41;1.02;;;1.00;;
21334;SDS011;69435;52.670;13.544;2023-07-13T08:32:27;2.92;;;1.17;;
21334;SDS011;69435;52.670;13.544;2023-07-13T08:35:13;2.38;;;1.20;;
21334;SDS011;69435;52.670;13.544;2023-07-13T08:37:59;2.78;;;1.27;;
21334;SDS011;69435;52.670;13.544;2023-07-13T08:40:49;2.53;;;1.42;;
21334;SDS011;69435;52.670;13.544;2023-07-13T08:43:41;1.80;;;1.33;;
21334;SDS011;69435;52.670;13.544;2023-07-13T08:46:35;1.50;;;1.30;;
21334;SDS011;69435;52.670;13.544;2023-07-13T08:49:25;1.38;;;1.38;;
21334;SDS011;69435;52.670;13.544;2023-07-13T08:55:30;1.40;;;1.30;;
21334;SDS011;69435;52.670;13.544;2023-07-13T08:58:21;1.77;;;1.15;;
21334;SDS011;69435;52.670;13.544;2023-07-13T09:04:41;1.35;;;1.20;;
21334;SDS011;69435;52.670;13.544;2023-07-13T09:08:01;1.25;;;1.15;;
21334;SDS011;69435;52.670;13.544;2023-07-13T09:10:58;1.92;;;1.23;;
21334;SDS011;69435;52.670;13.544;2023-07-13T09:14:02;2.70;;;1.45;;
21334;SDS011;69435;52.670;13.544;2023-07-13T09:17:29;1.67;;;1.58;;
21334;SDS011;69435;52.670;13.544;2023-07-13T09:20:54;2.25;;;1.17;;
21334;SDS011;69435;52.670;13.544;2023-07-13T09:27:30;2.67;;;1.40;;
21334;SDS011;69435;52.670;13.544;2023-07-13T09:30:40;1.75;;;1.40;;
21334;SDS011;69435;52.670;13.544;2023-07-13T09:33:39;2.53;;;1.15;;
21334;SDS011;69435;52.670;13.544;2023-07-13T09:36:30;2.17;;;1.40;;
21334;SDS011;69435;52.670;13.544;2023-07-13T09:42:18;1.25;;;1.20;;
21334;SDS011;69435;52.670;13.544;2023-07-13T09:45:07;1.30;;;1.20;;
21334;SDS011;69435;52.670;13.544;2023-07-13T09:48:05;3.00;;;1.50;;
21334;SDS011;69435;52.670;13.544;2023-07-13T09:50:57;1.35;;;1.35;;
21334;SDS011;69435;52.670;13.544;2023-07-13T09:54:00;1.80;;;1.35;;
21334;SDS011;69435;52.670;13.544;2023-07-13T09:56:47;1.95;;;1.40;;
21334;SDS011;69435;52.670;13.544;2023-07-13T09:59:40;3.33;;;1.55;;
21334;SDS011;69435;52.670;13.544;2023-07-13T10:02:33;1.38;;;1.27;;
21334;SDS011;69435;52.670;13.544;2023-07-13T10:05:21;4.32;;;1.88;;
21334;SDS011;69435;52.670;13.544;2023-07-13T10:08:21;4.15;;;1.83;;
21334;SDS011;69435;52.670;13.544;2023-07-13T10:11:09;4.63;;;1.65;;
21334;SDS011;69435;52.670;13.544;2023-07-13T10:14:20;2.38;;;1.77;;
21334;SDS011;69435;52.670;13.544;2023-07-13T10:17:13;3.05;;;1.60;;
21334;SDS011;69435;52.670;13.544;2023-07-13T10:20:05;1.75;;;1.60;;
21334;SDS011;69435;52.670;13.544;2023-07-13T10:23:01;3.25;;;1.73;;
21334;SDS011;69435;52.670;13.544;2023-07-13T10:25:53;2.55;;;1.75;;
21334;SDS011;69435;52.670;13.544;2023-07-13T10:28:42;2.65;;;1.65;;
21334;SDS011;69435;52.670;13.544;2023-07-13T10:31:36;2.63;;;1.80;;
21334;SDS011;69435;52.670;13.544;2023-07-13T10:34:24;4.00;;;1.90;;
21334;SDS011;69435;52.670;13.544;2023-07-13T10:37:18;2.80;;;2.00;;
21334;SDS011;69435;52.670;13.544;2023-07-13T10:40:12;4.25;;;1.80;;
21334;SDS011;69435;52.670;13.544;2023-07-13T10:43:06;4.60;;;1.90;;
21334;SDS011;69435;52.670;13.544;2023-07-13T10:46:08;3.22;;;2.40;;
21334;SDS011;69435;52.670;13.544;2023-07-13T10:49:01;2.58;;;2.20;;
21334;SDS011;69435;52.670;13.544;2023-07-13T10:51:53;3.28;;;1.80;;
21334;SDS011;69435;52.670;13.544;2023-07-13T10:54:39;3.08;;;2.17;;
21334;SDS011;69435;52.670;13.544;2023-07-13T10:57:28;2.30;;;2.10;;
21334;SDS011;69435;52.670;13.544;2023-07-13T11:00:15;2.05;;;1.70;;
21334;SDS011;69435;52.670;13.544;2023-07-13T11:03:03;2.17;;;2.08;;
21334;SDS011;69435;52.670;13.544;2023-07-13T11:05:50;3.15;;;2.20;;
21334;SDS011;69435;52.670;13.544;2023-07-13T11:08:58;4.65;;;2.05;;
21334;SDS011;69435;52.670;13.544;2023-07-13T11:12:07;3.78;;;2.33;;
21334;SDS011;69435;52.670;13.544;2023-07-13T11:15:42;2.45;;;2.08;;
21334;SDS011;69435;52.670;13.544;2023-07-13T11:18:33;1.95;;;1.85;;
21334;SDS011;69435;52.670;13.544;2023-07-13T11:27:09;2.45;;;1.90;;
21334;SDS011;69435;52.670;13.544;2023-07-13T11:33:20;5.05;;;2.08;;
21334;SDS011;69435;52.670;13.544;2023-07-13T11:36:14;4.10;;;2.40;;
21334;SDS011;69435;52.670;13.544;2023-07-13T11:42:33;8.35;;;2.65;;
21334;SDS011;69435;52.670;13.544;2023-07-13T11:45:21;11.02;;;2.45;;
21334;SDS011;69435;52.670;13.544;2023-07-13T11:48:26;2.70;;;2.20;;
21334;SDS011;69435;52.670;13.544;2023-07-13T11:51:20;3.10;;;1.85;;
21334;SDS011;69435;52.670;13.544;2023-07-13T11:54:23;2.30;;;2.00;;
21334;SDS011;69435;52.670;13.544;2023-07-13T11:57:38;3.05;;;2.15;;
21334;SDS011;69435;52.670;13.544;2023-07-13T12:00:44;2.78;;;2.38;;
21334;SDS011;69435;52.670;13.544;2023-07-13T12:03:32;5.07;;;2.30;;
21334;SDS011;69435;52.670;13.544;2023-07-13T12:09:18;3.55;;;2.22;;
21334;SDS011;69435;52.670;13.544;2023-07-13T12:12:10;2.40;;;2.20;;
21334;SDS011;69435;52.670;13.544;2023-07-13T12:15:07;2.20;;;2.00;;
21334;SDS011;69435;52.670;13.544;2023-07-13T12:17:54;3.83;;;2.47;;
21334;SDS011;69435;52.670;13.544;2023-07-13T12:20:42;2.25;;;2.05;;
21334;SDS011;69435;52.670;13.544;2023-07-13T12:23:31;2.92;;;2.13;;
21334;SDS011;69435;52.670;13.544;2023-07-13T12:26:21;5.93;;;2.38;;
21334;SDS011;69435;52.670;13.544;2023-07-13T12:29:07;31.25;;;3.75;;
21334;SDS011;69435;52.670;13.544;2023-07-13T12:31:53;2.35;;;2.15;;
21334;SDS011;69435;52.670;13.544;2023-07-13T12:34:54;4.20;;;2.75;;
21334;SDS011;69435;52.670;13.544;2023-07-13T12:37:48;2.22;;;2.03;;
21334;SDS011;69435;52.670;13.544;2023-07-13T12:40:36;3.20;;;2.08;;
21334;SDS011;69435;52.670;13.544;2023-07-13T12:43:22;2.00;;;1.80;;
21334;SDS011;69435;52.670;13.544;2023-07-13T12:46:19;4.28;;;2.28;;
21334;SDS011;69435;52.670;13.544;2023-07-13T12:49:12;2.20;;;2.00;;
21334;SDS011;69435;52.670;13.544;2023-07-13T12:52:04;4.15;;;2.45;;
21334;SDS011;69435;52.670;13.544;2023-07-13T12:55:07;4.43;;;2.17;;
21334;SDS011;69435;52.670;13.544;2023-07-13T12:58:03;3.45;;;2.35;;
21334;SDS011;69435;52.670;13.544;2023-07-13T13:00:50;2.75;;;1.92;;
21334;SDS011;69435;52.670;13.544;2023-07-13T13:03:45;2.55;;;2.25;;
21334;SDS011;69435;52.670;13.544;2023-07-13T13:06:37;4.32;;;2.28;;
21334;SDS011;69435;52.670;13.544;2023-07-13T13:09:23;3.22;;;2.05;;
21334;SDS011;69435;52.670;13.544;2023-07-13T13:12:10;3.05;;;2.22;;
21334;SDS011;69435;52.670;13.544;2023-07-13T13:14:56;2.58;;;2.38;;
21334;SDS011;69435;52.670;13.544;2023-07-13T13:17:42;2.97;;;2.30;;
21334;SDS011;69435;52.670;13.544;2023-07-13T13:20:28;2.88;;;2.13;;
21334;SDS011;69435;52.670;13.544;2023-07-13T13:23:15;5.80;;;2.13;;
21334;SDS011;69435;52.670;13.544;2023-07-13T13:26:07;5.32;;;2.05;;
21334;SDS011;69435;52.670;13.544;2023-07-13T13:28:56;2.20;;;2.00;;
21334;SDS011;69435;52.670;13.544;2023-07-13T13:31:44;3.20;;;2.10;;
21334;SDS011;69435;52.670;13.544;2023-07-13T13:34:31;6.60;;;2.40;;
21334;SDS011;69435;52.670;13.544;2023-07-13T13:37:20;3.85;;;2.15;;
21334;SDS011;69435;52.670;13.544;2023-07-13T13:40:19;2.63;;;2.22;;
21334;SDS011;69435;52.670;13.544;2023-07-13T13:43:18;2.60;;;2.40;;
21334;SDS011;69435;52.670;13.544;2023-07-13T13:46:13;3.40;;;1.95;;
21334;SDS011;69435;52.670;13.544;2023-07-13T13:49:04;2.60;;;2.35;;
21334;SDS011;69435;52.670;13.544;2023-07-13T13:51:50;3.53;;;1.90;;
21334;SDS011;69435;52.670;13.544;2023-07-13T13:54:38;6.18;;;2.35;;
21334;SDS011;69435;52.670;13.544;2023-07-13T13:57:24;4.10;;;2.15;;
21334;SDS011;69435;52.670;13.544;2023-07-13T14:00:11;3.58;;;2.10;;
21334;SDS011;69435;52.670;13.544;2023-07-13T14:02:59;2.88;;;1.90;;
21334;SDS011;69435;52.670;13.544;2023-07-13T14:05:46;2.75;;;2.10;;
21334;SDS011;69435;52.670;13.544;2023-07-13T14:08:33;3.40;;;1.88;;
21334;SDS011;69435;52.670;13.544;2023-07-13T14:11:20;4.22;;;1.60;;
21334;SDS011;69435;52.670;13.544;2023-07-13T14:14:12;3.30;;;1.85;;
21334;SDS011;69435;52.670;13.544;2023-07-13T14:17:08;2.85;;;1.90;;
21334;SDS011;69435;52.670;13.544;2023-07-13T14:20:11;3.65;;;1.92;;
21334;SDS011;69435;52.670;13.544;2023-07-13T14:22:57;3.58;;;1.80;;
21334;SDS011;69435;52.670;13.544;2023-07-13T14:25:43;4.65;;;1.85;;
21334;SDS011;69435;52.670;13.544;2023-07-13T14:28:31;4.40;;;2.00;;
21334;SDS011;69435;52.670;13.544;2023-07-13T14:31:18;3.67;;;1.90;;
21334;SDS011;69435;52.670;13.544;2023-07-13T14:34:04;4.68;;;1.80;;
21334;SDS011;69435;52.670;13.544;2023-07-13T14:36:50;3.05;;;1.70;;
21334;SDS011;69435;52.670;13.544;2023-07-13T14:39:36;1.90;;;1.70;;
21334;SDS011;69435;52.670;13.544;2023-07-13T14:42:23;2.92;;;1.83;;
21334;SDS011;69435;52.670;13.544;2023-07-13T14:45:13;2.65;;;1.80;;
21334;SDS011;69435;52.670;13.544;2023-07-13T14:48:01;3.30;;;2.20;;
21334;SDS011;69435;52.670;13.544;2023-07-13T14:50:53;3.42;;;1.65;;
21334;SDS011;69435;52.670;13.544;2023-07-13T14:53:43;3.17;;;2.03;;
21334;SDS011;69435;52.670;13.544;2023-07-13T14:56:29;4.55;;;1.90;;
21334;SDS011;69435;52.670;13.544;2023-07-13T14:59:15;2.42;;;1.67;;
21334;SDS011;69435;52.670;13.544;2023-07-13T15:02:11;3.97;;;1.50;;
21334;SDS011;69435;52.670;13.544;2023-07-13T15:05:24;2.53;;;1.85;;
21334;SDS011;69435;52.670;13.544;2023-07-13T15:08:14;1.95;;;1.45;;
21334;SDS011;69435;52.670;13.544;2023-07-13T15:11:01;5.72;;;1.45;;
21334;SDS011;69435;52.670;13.544;2023-07-13T15:13:50;5.47;;;1.45;;
21334;SDS011;69435;52.670;13.544;2023-07-13T15:16:36;1.60;;;1.50;;
21334;SDS011;69435;52.670;13.544;2023-07-13T15:19:22;3.92;;;1.42;;
21334;SDS011;69435;52.670;13.544;2023-07-13T15:22:10;1.48;;;1.20;;
21334;SDS011;69435;52.670;13.544;2023-07-13T15:24:56;1.80;;;1.33;;
21334;SDS011;69435;52.670;13.544;2023-07-13T15:27:42;3.13;;;1.40;;
21334;SDS011;69435;52.670;13.544;2023-07-13T15:30:29;2.17;;;1.42;;
21334;SDS011;69435;52.670;13.544;2023-07-13T15:33:25;1.40;;;1.27;;
21334;SDS011;69435;52.670;13.544;2023-07-13T15:36:17;1.58;;;1.35;;
21334;SDS011;69435;52.670;13.544;2023-07-13T15:39:05;6.53;;;1.45;;
21334;SDS011;69435;52.670;13.544;2023-07-13T15:41:52;6.57;;;1.20;;
21334;SDS011;69435;52.670;13.544;2023-07-13T15:44:39;4.88;;;1.70;;
21334;SDS011;69435;52.670;13.544;2023-07-13T15:47:25;1.17;;;1.00;;
21334;SDS011;69435;52.670;13.544;2023-07-13T15:50:15;1.73;;;1.10;;
21334;SDS011;69435;52.670;13.544;2023-07-13T15:53:08;1.58;;;0.90;;
21334;SDS011;69435;52.670;13.544;2023-07-13T15:55:55;2.60;;;1.00;;
21334;SDS011;69435;52.670;13.544;2023-07-13T15:58:42;4.60;;;1.08;;
21334;SDS011;69435;52.670;13.544;2023-07-13T16:01:28;2.28;;;1.10;;
21334;SDS011;69435;52.670;13.544;2023-07-13T16:04:17;1.20;;;1.17;;
21334;SDS011;69435;52.670;13.544;2023-07-13T16:07:04;1.60;;;1.20;;
21334;SDS011;69435;52.670;13.544;2023-07-13T16:09:51;3.22;;;1.33;;
21334;SDS011;69435;52.670;13.544;2023-07-13T16:12:37;2.70;;;1.45;;
21334;SDS011;69435;52.670;13.544;2023-07-13T16:15:23;1.70;;;1.40;;
21334;SDS011;69435;52.670;13.544;2023-07-13T16:18:13;3.80;;;1.42;;
21334;SDS011;69435;52.670;13.544;2023-07-13T16:21:08;1.20;;;1.10;;
21334;SDS011;69435;52.670;13.544;2023-07-13T16:23:58;1.67;;;1.38;;
21334;SDS011;69435;52.670;13.544;2023-07-13T16:26:47;4.10;;;1.20;;
21334;SDS011;69435;52.670;13.544;2023-07-13T16:29:34;2.50;;;1.10;;
21334;SDS011;69435;52.670;13.544;2023-07-13T16:32:20;2.22;;;1.40;;
21334;SDS011;69435;52.670;13.544;2023-07-13T16:35:07;3.55;;;1.08;;
21334;SDS011;69435;52.670;13.544;2023-07-13T16:37:54;2.33;;;1.23;;
21334;SDS011;69435;52.670;13.544;2023-07-13T16:40:41;3.95;;;1.27;;
21334;SDS011;69435;52.670;13.544;2023-07-13T16:43:27;1.20;;;1.10;;
21334;SDS011;69435;52.670;13.544;2023-07-13T16:46:14;3.30;;;1.20;;
21334;SDS011;69435;52.670;13.544;2023-07-13T16:49:27;1.40;;;1.30;;
21334;SDS011;69435;52.670;13.544;2023-07-13T16:52:20;1.75;;;1.40;;
21334;SDS011;69435;52.670;13.544;2023-07-13T16:55:10;1.63;;;1.38;;
21334;SDS011;69435;52.670;13.544;2023-07-13T16:58:00;2.20;;;1.40;;
21334;SDS011;69435;52.670;13.544;2023-07-13T17:00:48;1.70;;;1.40;;
21334;SDS011;69435;52.670;13.544;2023-07-13T17:03:37;4.50;;;1.40;;
21334;SDS011;69435;52.670;13.544;2023-07-13T17:06:24;1.83;;;1.40;;
21334;SDS011;69435;52.670;13.544;2023-07-13T17:09:11;1.45;;;1.35;;
21334;SDS011;69435;52.670;13.544;2023-07-13T17:11:58;2.60;;;1.40;;
21334;SDS011;69435;52.670;13.544;2023-07-13T17:14:45;29.17;;;3.38;;